HKJKHTZA

Guest
Details From HKJK - Nairobi Jomo Kanyatta Intl
To HTZA - ZANZIBAR
Flight Number -
Tags generated
Created
Modified
Stats Distance 326 nm / 604 km
Max Altitude 35,000 ft / 10,668 m
Waypoints 6
Social Downloads 2
Likes 0
Share VATSIM

Download

Looking for another format? Having issues loading an existing format? Contact us
Advertisement - Login to hide

Notes

Basic altitude profile: - Ascent Rate: 2500ft/min - Ascent Speed: 280kts - Cruise Altitude: 30000ft - Cruise Speed: 450kts - Descent Rate: 1800ft/min - Descent Speed: 250kts Options: - Use NATs: yes - Use PACOTS: yes - Use low airways: yes - Use high airways: yes

Route

HKJK GABSO UB533 GEREN HTZA

ID Type Via Altitude Latitude Longitude Leg Dist Tot Dist Heading (true) Name
O HKJK APT - 0 ft / 0 m -1.31707˚ 36.93076˚ - 0 nm - Nairobi Jomo Kanyatta Intl
GABSO FIX - 35,000 ft / 10,668 m -2.85248˚ 37.56752˚ 99 nm 99 nm 157° / 157° -
OKNES FIX UB533 (AWY-HI) 35,000 ft / 10,668 m -3.58472˚ 37.90000˚ 48 nm 148 nm 156° / 156° -
LUDOL FIX UB533 (AWY-HI) 35,000 ft / 10,668 m -3.81602˚ 37.96136˚ 14 nm 162 nm 165° / 165° -
GEREN FIX UB533 (AWY-HI) 23,500 ft / 7,163 m -5.06480˚ 38.46110˚ 80 nm 243 nm 158° / 158° -
O HTZA APT - 0 ft / 0 m -6.22202˚ 39.22488˚ 83 nm 326 nm 147° / 147° ZANZIBAR

Altitude Profile

Advertisement - Login to hide

Weather


0- 5 10 15 20 25 30 35+ Temperature / ° C

Clouds and Precipitation
Forecast for 2018-05-26 12:00 UTC. Updated 5 hours ago

Ground ~20,000 ft ~40,000 ft Winds

HKJK

Details ICAO HKJK (NBO)
Name Nairobi Jomo Kanyatta Intl
Region Kenya
Timezone Africa/Nairobi (UTC+3.0)
Stats Elevation 5,330 ft / 1,625 m (AMSL)
Location -1.317073° 36.930757°
Runways 1
Magnetic Variation 0.591° E

METAR

HKJK 261530Z 12008KT 9999 SCT024 22/14 Q1021

Decode

TAF

TAF HKJK 261100Z 2612/2718 16008KT 9999 FEW024CB BKN025 BECMG 2615/2618 09010KT

Decode

Departure Runways

ID Width Length Bearing (true) Bearing (mag) Surface Threshold Offset Overrun Length
06 148 ft / 45 m 13,215 ft / 4,028 m 53.90° 53.31° Asphalt 0 ft / 0 m 194 ft / 59 m
24 148 ft / 45 m 13,215 ft / 4,028 m 233.90° 233.31° Asphalt 0 ft / 0 m 197 ft / 60 m

HTZA

Details ICAO HTZA (ZNZ)
Name ZANZIBAR
Region Tanzania
Timezone Africa/Dar_es_Salaam (UTC+3.0)
Stats Elevation 54 ft / 16 m (AMSL)
Location -6.222024° 39.224885°
Runways 1
Magnetic Variation 1.805° W

METAR

HTZA 261500Z 00000KT 9999 FEW018 FEW020CB BKN080 27/24 Q1013 NOSIG

Decode

TAF

TAF HTZA 261100Z 2612/2712 14010KT 9999 SCT018 FEW020CB BKN080 BECMG 2701/2703 22010KT BKN018 FEW020CB PROB30 TEMPO 2703/2709 SHRA BECMG 2709/2711 16010KT SCT020

Decode

Destination Runways

ID Width Length Bearing (true) Bearing (mag) Surface Threshold Offset Overrun Length
18 148 ft / 45 m 8,100 ft / 2,469 m 174.27° 176.08° Asphalt 0 ft / 0 m 0 ft / 0 m
36 148 ft / 45 m 8,100 ft / 2,469 m 354.27° 356.08° Asphalt 0 ft / 0 m 0 ft / 0 m

Popular Alternatives